Time;durP1;ratioP1;P1;durP2;ratioP2;P2;SDS_P1;SDS_P2;PMS_P1;PMS_P2;Temp;Humidity;BMP_temperature;BMP_pressure;BME280_temperature;BME280_humidity;BME280_pressure;Samples;Min_cycle;Max_cycle;Signal;HPM_P1;HPM_P2
2024/03/31 00:01:39;;;;;;;26.6;13.1;;;;;;;13.93;62.44;97640;;;;
2024/03/31 00:11:39;;;;;;;26.6;13.1;;;;;;;13.96;61.91;97636.666666667;;;;
2024/03/31 00:21:39;;;;;;;29.9;11.5;;;;;;;13.87;62.1;97618.333333333;;;;
2024/03/31 00:32:39;;;;;;;29.9;11.5;;;;;;;13.71;62.38;97606.666666667;;;;
2024/03/31 00:43:39;;;;;;;29.9;11.5;;;;;;;13.68;62.21;97596.666666667;;;;
2024/03/31 00:54:39;;;;;;;24.3;10.5;;;;;;;13.78;61.89;97591.666666667;;;;
2024/03/31 01:04:39;;;;;;;24.3;10.5;;;;;;;13.6;61.99;97588.333333333;;;;
2024/03/31 01:14:39;;;;;;;24.3;10.5;;;;;;;13.44;62.31;97590;;;;
2024/03/31 01:24:39;;;;;;;20.6;10.5;;;;;;;13.39;62.05;97585;;;;
2024/03/31 01:35:39;;;;;;;20.6;10.5;;;;;;;13.25;63.09;97575;;;;
2024/03/31 01:46:39;;;;;;;20.6;10.5;;;;;;;13.57;62.89;97561.666666667;;;;
2024/03/31 01:56:39;;;;;;;21.5;9.5;;;;;;;13.8;62.09;97558.333333333;;;;
2024/03/31 02:07:39;;;;;;;21.5;9.5;;;;;;;14.29;60.02;97551.666666667;;;;
2024/03/31 02:18:39;;;;;;;23.9;7.9;;;;;;;14.45;59.4;97548.333333333;;;;
2024/03/31 02:28:39;;;;;;;23.9;7.9;;;;;;;14.62;58.71;97548.333333333;;;;
2024/03/31 02:39:39;;;;;;;23.9;7.9;;;;;;;14.83;57.88;97548.333333333;;;;
2024/03/31 02:50:39;;;;;;;15.6;6.7;;;;;;;14.85;57.91;97556.666666667;;;;
2024/03/31 03:00:39;;;;;;;15.6;6.7;;;;;;;15.16;56.74;97550;;;;
2024/03/31 03:10:39;;;;;;;15.6;6.7;;;;;;;15.14;56.66;97538.333333333;;;;
2024/03/31 03:20:39;;;;;;;14;5.7;;;;;;;15.23;56.09;97530;;;;
2024/03/31 03:30:39;;;;;;;14;5.7;;;;;;;15.13;56.45;97526.666666667;;;;
2024/03/31 03:41:39;;;;;;;14;5.7;;;;;;;14.98;56.68;97535;;;;
2024/03/31 03:51:39;;;;;;;14.2;5.5;;;;;;;14.85;57.14;97538.333333333;;;;
2024/03/31 04:02:39;;;;;;;14.2;5.5;;;;;;;14.57;58;97546.666666667;;;;
2024/03/31 04:13:39;;;;;;;14.2;5.5;;;;;;;14.65;58.42;97556.666666667;;;;
2024/03/31 04:24:39;;;;;;;14.6;5.1;;;;;;;14.48;59.18;97548.333333333;;;;
2024/03/31 04:35:39;;;;;;;14.6;5.1;;;;;;;15;57.41;97540;;;;
2024/03/31 04:46:39;;;;;;;10.8;4.6;;;;;;;15.11;57.4;97538.333333333;;;;
2024/03/31 04:56:39;;;;;;;10.8;4.6;;;;;;;14.92;57.58;97538.333333333;;;;
2024/03/31 05:06:39;;;;;;;10.8;4.6;;;;;;;14.64;58.84;97541.666666667;;;;
2024/03/31 05:17:39;;;;;;;11.5;4.5;;;;;;;14.44;60.73;97545;;;;
2024/03/31 05:27:39;;;;;;;11.5;4.5;;;;;;;14.39;60.99;97538.333333333;;;;
2024/03/31 05:38:39;;;;;;;11.5;4.5;;;;;;;14.47;61.09;97538.333333333;;;;
2024/03/31 05:49:39;;;;;;;9.8;5.2;;;;;;;14.7;62.4;97533.333333333;;;;
2024/03/31 05:59:39;;;;;;;9.8;5.2;;;;;;;15.41;60.48;97526.666666667;;;;
2024/03/31 06:09:39;;;;;;;9.8;5.2;;;;;;;16.07;60.23;97530;;;;
2024/03/31 06:20:39;;;;;;;11.8;4;;;;;;;15.98;59.36;97558.333333333;;;;
2024/03/31 06:30:39;;;;;;;11.8;4;;;;;;;16.34;58.89;97560;;;;
2024/03/31 06:40:39;;;;;;;11.8;4;;;;;;;16.63;58.54;97555;;;;
2024/03/31 06:51:39;;;;;;;10;4.5;;;;;;;17.03;57.62;97545;;;;
2024/03/31 07:01:39;;;;;;;10;4.5;;;;;;;17.56;54.31;97510;;;;
2024/03/31 07:12:39;;;;;;;10;4.5;;;;;;;18.59;46.23;97516.666666667;;;;
2024/03/31 07:23:39;;;;;;;12;4.1;;;;;;;19.37;42.82;97513.333333333;;;;
2024/03/31 07:34:39;;;;;;;12;4.1;;;;;;;20.04;37.07;97518.333333333;;;;
2024/03/31 07:45:39;;;;;;;12;4.1;;;;;;;20.45;38.46;97518.333333333;;;;
2024/03/31 07:55:39;;;;;;;11;3.9;;;;;;;20.91;37.39;97505;;;;
2024/03/31 08:06:39;;;;;;;11;3.9;;;;;;;20.96;35.5;97485;;;;
2024/03/31 08:17:39;;;;;;;15.6;5.2;;;;;;;21.58;34.73;97486.666666667;;;;
2024/03/31 08:27:39;;;;;;;15.6;5.2;;;;;;;21.83;33.66;97495;;;;
2024/03/31 08:38:39;;;;;;;15.6;5.2;;;;;;;22.31;32.14;97458.333333333;;;;
2024/03/31 08:49:39;;;;;;;16.2;5.8;;;;;;;22.64;31.05;97451.666666667;;;;
2024/03/31 09:00:39;;;;;;;16.2;5.8;;;;;;;22.5;31.59;97440;;;;
2024/03/31 09:10:39;;;;;;;16.2;5.8;;;;;;;22.83;34.1;97415;;;;
2024/03/31 09:21:39;;;;;;;20.3;6.1;;;;;;;22.59;34.27;97408.333333333;;;;
2024/03/31 09:31:39;;;;;;;20.3;6.1;;;;;;;22.74;33.14;97418.333333333;;;;
2024/03/31 09:41:39;;;;;;;20.3;6.1;;;;;;;23.19;32.71;97416.666666667;;;;
2024/03/31 09:52:39;;;;;;;18.5;6.9;;;;;;;23.38;33.03;97413.333333333;;;;
2024/03/31 10:02:39;;;;;;;18.5;6.9;;;;;;;23.86;33.75;97425;;;;
2024/03/31 10:13:39;;;;;;;18.5;6.9;;;;;;;24.16;31.83;97426.666666667;;;;
2024/03/31 10:24:39;;;;;;;18.8;7.3;;;;;;;24.21;31.35;97443.333333333;;;;
2024/03/31 10:34:39;;;;;;;18.8;7.3;;;;;;;24.62;32.03;97438.333333333;;;;
2024/03/31 10:44:39;;;;;;;18.8;7.3;;;;;;;24.69;31.34;97435;;;;
2024/03/31 10:55:39;;;;;;;38.3;12.3;;;;;;;24.46;29.69;97425;;;;
2024/03/31 11:06:39;;;;;;;38.3;12.3;;;;;;;24.33;30.18;97408.333333333;;;;
2024/03/31 11:16:39;;;;;;;38.3;12.3;;;;;;;24.15;31.48;97375;;;;
2024/03/31 11:27:39;;;;;;;38.8;13.7;;;;;;;24.39;32.42;97361.666666667;;;;
2024/03/31 11:38:39;;;;;;;38.8;13.7;;;;;;;24.68;29.79;97376.666666667;;;;
2024/03/31 11:48:39;;;;;;;51.2;15.5;;;;;;;24.89;31.47;97370;;;;
2024/03/31 11:58:39;;;;;;;51.2;15.5;;;;;;;24.9;29.06;97355;;;;
2024/03/31 12:09:39;;;;;;;51.2;15.5;;;;;;;24.89;29.92;97338.333333333;;;;
2024/03/31 12:20:39;;;;;;;49.9;16.2;;;;;;;24.68;28.7;97346.666666667;;;;
2024/03/31 12:30:39;;;;;;;49.9;16.2;;;;;;;24.7;28.53;97340;;;;
2024/03/31 12:41:39;;;;;;;49.9;16.2;;;;;;;24.52;30.36;97351.666666667;;;;
2024/03/31 12:52:39;;;;;;;42.7;16.6;;;;;;;24.63;28.95;97355;;;;
2024/03/31 13:03:40;;;;;;;42.7;16.6;;;;;;;24.85;29.06;97358.333333333;;;;
2024/03/31 13:14:39;;;;;;;42.7;16.6;;;;;;;24.86;30.93;97355;;;;
2024/03/31 13:24:39;;;;;;;54.2;16.8;;;;;;;24.92;30.05;97356.666666667;;;;
2024/03/31 13:35:39;;;;;;;54.2;16.8;;;;;;;24.56;31.68;97353.333333333;;;;
2024/03/31 13:45:39;;;;;;;54.2;16.8;;;;;;;24.04;30.99;97355;;;;
2024/03/31 13:56:39;;;;;;;55.4;18.1;;;;;;;24.16;33.18;97351.666666667;;;;
2024/03/31 14:07:39;;;;;;;55.4;18.1;;;;;;;24.02;32.31;97335;;;;
2024/03/31 14:17:39;;;;;;;46.9;17.3;;;;;;;23.83;33.16;97326.666666667;;;;
2024/03/31 14:27:39;;;;;;;46.9;17.3;;;;;;;23.68;33.88;97328.333333333;;;;
2024/03/31 14:38:39;;;;;;;46.9;17.3;;;;;;;23.36;34.33;97331.666666667;;;;
2024/03/31 14:48:39;;;;;;;52.2;17.7;;;;;;;22.95;33.14;97323.333333333;;;;
2024/03/31 14:58:39;;;;;;;52.2;17.7;;;;;;;22.88;35.04;97325;;;;
2024/03/31 15:09:39;;;;;;;52.2;17.7;;;;;;;22.68;36.29;97333.333333333;;;;
2024/03/31 15:20:40;;;;;;;40.5;15.1;;;;;;;22.5;37.08;97328.333333333;;;;
2024/03/31 15:31:39;;;;;;;40.5;15.1;;;;;;;22.17;35.86;97330;;;;
2024/03/31 15:42:39;;;;;;;40.5;15.1;;;;;;;21.97;36.74;97333.333333333;;;;
2024/03/31 15:52:39;;;;;;;38.9;12.8;;;;;;;21.8;37.35;97331.666666667;;;;
2024/03/31 16:03:39;;;;;;;38.9;12.8;;;;;;;21.56;37.76;97326.666666667;;;;
2024/03/31 16:13:39;;;;;;;38.9;12.8;;;;;;;21.22;38.57;97328.333333333;;;;
2024/03/31 16:23:40;;;;;;;40.9;13.4;;;;;;;21.1;36.44;97333.333333333;;;;
2024/03/31 16:34:41;;;;;;;40.9;13.4;;;;;;;20.97;36.89;97343.333333333;;;;
2024/03/31 16:44:39;;;;;;;40.9;13.4;;;;;;;20.74;36.68;97336.666666667;;;;
2024/03/31 16:54:39;;;;;;;39;12.2;;;;;;;20.58;36.67;97311.666666667;;;;
2024/03/31 17:04:39;;;;;;;39;12.2;;;;;;;20.77;35.49;97318.333333333;;;;
2024/03/31 17:15:39;;;;;;;39;12.2;;;;;;;20.76;35.16;97330;;;;
2024/03/31 17:26:39;;;;;;;37.3;11.2;;;;;;;20.76;34.49;97335;;;;
2024/03/31 17:37:39;;;;;;;37.3;11.2;;;;;;;20.65;35.57;97345;;;;
2024/03/31 17:47:39;;;;;;;28.1;10.9;;;;;;;20.6;35.91;97353.333333333;;;;
2024/03/31 17:57:39;;;;;;;28.1;10.9;;;;;;;20.5;36.25;97363.333333333;;;;
2024/03/31 18:08:40;;;;;;;28.1;10.9;;;;;;;20.35;36.91;97366.666666667;;;;
2024/03/31 18:19:39;;;;;;;26.7;9.5;;;;;;;20.28;38.18;97381.666666667;;;;
2024/03/31 18:29:39;;;;;;;26.7;9.5;;;;;;;20.12;37.21;97386.666666667;;;;
2024/03/31 18:39:39;;;;;;;26.7;9.5;;;;;;;20.01;37.93;97358.333333333;;;;
2024/03/31 18:50:39;;;;;;;25.3;9.6;;;;;;;19.78;38.76;97388.333333333;;;;
2024/03/31 19:01:39;;;;;;;25.3;9.6;;;;;;;19.72;40.3;97416.666666667;;;;
2024/03/31 19:11:43;;;;;;;25.3;9.6;;;;;;;19.53;41.09;97408.333333333;;;;
2024/03/31 19:21:39;;;;;;;26.8;10.1;;;;;;;19.31;42.46;97405;;;;
2024/03/31 19:32:40;;;;;;;26.8;10.1;;;;;;;19.19;43.49;97411.666666667;;;;
2024/03/31 19:43:39;;;;;;;26.8;10.1;;;;;;;18.93;44.31;97405;;;;
2024/03/31 19:53:39;;;;;;;26.5;9.1;;;;;;;18.68;45.98;97405;;;;
2024/03/31 20:04:39;;;;;;;26.5;9.1;;;;;;;18.54;46.99;97415;;;;
2024/03/31 20:14:39;;;;;;;26.5;9.1;;;;;;;18.33;46.73;97411.666666667;;;;
2024/03/31 20:25:39;;;;;;;36.5;11.7;;;;;;;17.95;48.09;97406.666666667;;;;
2024/03/31 20:35:40;;;;;;;36.5;11.7;;;;;;;17.58;48.87;97408.333333333;;;;
2024/03/31 20:46:39;;;;;;;36.5;11.7;;;;;;;17.03;50.4;97408.333333333;;;;
2024/03/31 20:57:39;;;;;;;23.9;9.9;;;;;;;16.92;50.54;97411.666666667;;;;
2024/03/31 21:07:39;;;;;;;23.9;9.9;;;;;;;16.66;51.19;97403.333333333;;;;
2024/03/31 21:18:39;;;;;;;24.7;10.2;;;;;;;16.44;51.89;97403.333333333;;;;
2024/03/31 21:28:39;;;;;;;24.7;10.2;;;;;;;16.1;52.87;97395;;;;
2024/03/31 21:39:39;;;;;;;24.7;10.2;;;;;;;16.03;52.47;97386.666666667;;;;
2024/03/31 21:49:39;;;;;;;25.5;10.1;;;;;;;16.19;51.46;97380;;;;
2024/03/31 21:59:39;;;;;;;25.5;10.1;;;;;;;16.46;50.88;97373.333333333;;;;
2024/03/31 22:10:40;;;;;;;25.5;10.1;;;;;;;16.5;50.86;97348.333333333;;;;
2024/03/31 22:21:39;;;;;;;33.6;12.9;;;;;;;16.75;50.59;97330;;;;
2024/03/31 22:31:39;;;;;;;33.6;12.9;;;;;;;16.66;50.91;97328.333333333;;;;
2024/03/31 22:42:39;;;;;;;33.6;12.9;;;;;;;16.89;50.03;97321.666666667;;;;
2024/03/31 22:53:39;;;;;;;35.3;14.3;;;;;;;16.96;49.96;97323.333333333;;;;
2024/03/31 23:03:39;;;;;;;35.3;14.3;;;;;;;16.98;49.91;97326.666666667;;;;
2024/03/31 23:14:40;;;;;;;35.3;14.3;;;;;;;17.08;49.91;97313.333333333;;;;
2024/03/31 23:25:39;;;;;;;30.6;12.5;;;;;;;17;50.11;97333.333333333;;;;
2024/03/31 23:36:39;;;;;;;30.6;12.5;;;;;;;16.82;50.65;97331.666666667;;;;
2024/03/31 23:46:39;;;;;;;30.6;12.5;;;;;;;16.66;51.27;97326.666666667;;;;
2024/03/31 23:57:39;;;;;;;33.3;11.7;;;;;;;16.51;51.85;97333.333333333;;;;
